createdAt,value
2023-04-01T00:01:36.583Z,1.20
2023-04-01T00:04:00.157Z,1.40
2023-04-01T00:06:21.411Z,1.30
2023-04-01T00:08:42.932Z,1.20
2023-04-01T00:11:04.152Z,1.20
2023-04-01T00:13:26.524Z,1.30
2023-04-01T00:15:47.695Z,1.17
2023-04-01T00:18:09.653Z,1.10
2023-04-01T00:20:32.208Z,1.00
2023-04-01T00:22:53.475Z,1.30
2023-04-01T00:25:14.863Z,1.10
2023-04-01T00:27:36.109Z,1.20
2023-04-01T00:29:57.454Z,1.30
2023-04-01T00:32:18.772Z,1.20
2023-04-01T00:34:40.878Z,1.00
2023-04-01T00:37:03.492Z,1.33
2023-04-01T00:39:24.714Z,1.20
2023-04-01T00:41:45.998Z,1.00
2023-04-01T00:44:16.509Z,0.97
2023-04-01T00:46:37.942Z,1.20
2023-04-01T00:48:58.998Z,1.10
2023-04-01T00:51:22.324Z,1.10
2023-04-01T00:53:46.886Z,1.20
2023-04-01T00:56:12.645Z,0.90
2023-04-01T00:58:36.215Z,1.20
2023-04-01T01:00:58.307Z,1.03
2023-04-01T01:03:19.253Z,1.40
2023-04-01T01:05:49.642Z,1.10
2023-04-01T01:08:16.446Z,1.20
2023-04-01T01:10:39.540Z,1.00
2023-04-01T01:13:05.867Z,1.13
2023-04-01T01:15:28.481Z,1.10
2023-04-01T01:17:58.123Z,1.20
2023-04-01T01:20:35.499Z,1.20
2023-04-01T01:23:13.127Z,1.10
2023-04-01T01:25:39.687Z,1.20
2023-04-01T01:28:13.386Z,1.20
2023-04-01T01:30:41.046Z,0.97
2023-04-01T01:33:17.007Z,1.20
2023-04-01T01:35:40.887Z,1.27
2023-04-01T01:38:03.404Z,1.20
2023-04-01T01:40:26.220Z,1.03
2023-04-01T01:42:49.347Z,1.20
2023-04-01T01:45:11.381Z,1.17
2023-04-01T01:47:33.203Z,1.33
2023-04-01T01:49:55.400Z,0.90
2023-04-01T01:52:19.358Z,1.30
2023-04-01T01:54:48.637Z,1.20
2023-04-01T01:57:11.634Z,1.10
2023-04-01T01:59:34.053Z,1.07
2023-04-01T02:01:57.684Z,0.97
2023-04-01T02:04:20.057Z,0.90
2023-04-01T02:06:44.880Z,0.90
2023-04-01T02:09:11.555Z,1.30
2023-04-01T02:11:34.437Z,1.10
2023-04-01T02:13:57.186Z,1.03
2023-04-01T02:16:22.014Z,0.93
2023-04-01T02:18:43.763Z,0.97
2023-04-01T02:21:05.951Z,1.20
2023-04-01T02:23:27.575Z,1.00
2023-04-01T02:25:50.448Z,0.93
2023-04-01T02:28:12.554Z,1.03
2023-04-01T02:30:35.635Z,1.00
2023-04-01T02:32:57.648Z,1.00
2023-04-01T02:35:19.535Z,1.20
2023-04-01T02:37:43.138Z,0.90
2023-04-01T02:40:05.874Z,1.23
2023-04-01T02:42:28.262Z,0.70
2023-04-01T02:44:49.539Z,1.00
2023-04-01T02:47:10.500Z,0.60
2023-04-01T02:49:31.691Z,0.90
2023-04-01T02:51:53.519Z,1.00
2023-04-01T02:54:14.719Z,0.90
2023-04-01T02:56:36.310Z,0.90
2023-04-01T02:58:59.162Z,0.93
2023-04-01T03:01:20.495Z,0.90
2023-04-01T03:03:41.943Z,0.77
2023-04-01T03:06:06.686Z,0.80
2023-04-01T03:08:28.227Z,0.90
2023-04-01T03:10:49.574Z,0.80
2023-04-01T03:13:11.145Z,0.90
2023-04-01T03:15:33.815Z,0.73
2023-04-01T03:17:55.163Z,1.00
2023-04-01T03:20:17.059Z,0.70
2023-04-01T03:22:39.629Z,0.70
2023-04-01T03:25:02.632Z,0.87
2023-04-01T03:27:24.292Z,0.93
2023-04-01T03:29:45.339Z,0.80
2023-04-01T03:32:08.133Z,1.00
2023-04-01T03:34:29.130Z,1.00
2023-04-01T03:36:51.008Z,0.80
2023-04-01T03:39:12.198Z,1.10
2023-04-01T03:41:33.810Z,0.70
2023-04-01T03:43:55.386Z,0.80
2023-04-01T03:46:19.265Z,0.80
2023-04-01T03:48:41.700Z,0.80
2023-04-01T03:51:03.276Z,0.90
2023-04-01T03:53:24.855Z,0.83
2023-04-01T03:55:46.103Z,0.70
2023-04-01T03:58:07.642Z,0.77
2023-04-01T04:00:28.642Z,0.90
2023-04-01T04:02:50.044Z,0.93
2023-04-01T04:05:14.244Z,0.77
2023-04-01T04:07:36.255Z,0.90
2023-04-01T04:09:57.554Z,0.70
2023-04-01T04:12:18.763Z,0.80
2023-04-01T04:14:40.105Z,0.67
2023-04-01T04:17:01.381Z,0.90
2023-04-01T04:19:22.775Z,0.60
2023-04-01T04:21:45.564Z,0.87
2023-04-01T04:24:07.112Z,0.70
2023-04-01T04:26:28.607Z,0.80
2023-04-01T04:28:50.124Z,1.00
2023-04-01T04:31:11.344Z,0.80
2023-04-01T04:33:33.159Z,0.70
2023-04-01T04:35:56.782Z,0.80
2023-04-01T04:38:19.219Z,0.83
2023-04-01T04:40:42.647Z,0.80
2023-04-01T04:43:03.623Z,0.90
2023-04-01T04:45:24.931Z,0.70
2023-04-01T04:47:46.172Z,0.90
2023-04-01T04:50:08.264Z,0.80
2023-04-01T04:52:29.400Z,0.80
2023-04-01T04:54:52.366Z,0.90
2023-04-01T04:57:13.591Z,0.70
2023-04-01T04:59:35.043Z,1.03
2023-04-01T05:01:56.407Z,1.00
2023-04-01T05:04:18.139Z,0.80
2023-04-01T05:06:39.358Z,0.80
2023-04-01T05:09:00.775Z,1.10
2023-04-01T05:11:23.567Z,0.90
2023-04-01T05:13:44.986Z,1.13
2023-04-01T05:16:10.027Z,1.10
2023-04-01T05:18:31.221Z,1.10
2023-04-01T05:20:53.163Z,1.10
2023-04-01T05:23:14.522Z,1.00
2023-04-01T05:25:36.015Z,1.10
2023-04-01T05:27:58.698Z,1.00
2023-04-01T05:30:20.073Z,0.93
2023-04-01T05:32:41.364Z,1.13
2023-04-01T05:35:02.576Z,1.53
2023-04-01T05:37:24.926Z,1.20
2023-04-01T05:39:46.048Z,0.90
2023-04-01T05:42:08.002Z,0.90
2023-04-01T05:44:30.357Z,1.17
2023-04-01T05:46:51.335Z,0.90
2023-04-01T05:49:12.525Z,1.03
2023-04-01T05:51:33.723Z,1.00
2023-04-01T05:53:55.068Z,1.10
2023-04-01T05:56:16.783Z,0.93
2023-04-01T05:58:38.548Z,1.20
2023-04-01T06:01:10.232Z,1.10
2023-04-01T06:03:36.094Z,1.03
2023-04-01T06:05:57.762Z,0.80
2023-04-01T06:08:20.705Z,1.00
2023-04-01T06:10:47.466Z,1.10
2023-04-01T06:13:09.661Z,0.90
2023-04-01T06:15:42.820Z,0.83
2023-04-01T06:18:13.921Z,0.80
2023-04-01T06:20:42.157Z,1.00
2023-04-01T06:23:11.732Z,1.00
2023-04-01T06:25:46.366Z,0.73
2023-04-01T06:28:37.834Z,0.93
2023-04-01T06:31:02.152Z,0.80
2023-04-01T06:33:34.749Z,0.80
2023-04-01T06:36:12.221Z,1.00
2023-04-01T06:38:44.940Z,0.70
2023-04-01T06:41:23.698Z,1.00
2023-04-01T06:43:51.642Z,0.93
2023-04-01T06:46:18.728Z,0.97
2023-04-01T06:48:58.394Z,0.90
2023-04-01T06:51:26.739Z,0.90
2023-04-01T06:53:54.407Z,1.00
2023-04-01T06:56:17.344Z,0.83
2023-04-01T06:58:41.456Z,1.17
2023-04-01T07:01:04.389Z,1.30
2023-04-01T07:03:33.935Z,1.07
2023-04-01T07:05:58.762Z,0.90
2023-04-01T07:08:22.384Z,1.10
2023-04-01T07:10:47.666Z,1.03
2023-04-01T07:13:12.909Z,1.13
2023-04-01T07:15:37.387Z,1.00
2023-04-01T07:18:01.035Z,1.00
2023-04-01T07:20:24.639Z,1.20
2023-04-01T07:22:48.321Z,1.40
2023-04-01T07:25:13.817Z,1.03
2023-04-01T07:27:34.771Z,0.90
2023-04-01T07:29:57.994Z,1.00
2023-04-01T07:32:25.543Z,1.10
2023-04-01T07:34:52.592Z,1.00
2023-04-01T07:37:16.519Z,0.83
2023-04-01T07:39:45.219Z,1.00
2023-04-01T07:42:11.025Z,0.80
2023-04-01T07:44:37.146Z,0.90
2023-04-01T07:47:05.625Z,1.00
2023-04-01T07:49:30.875Z,0.90
2023-04-01T07:51:53.604Z,1.03
2023-04-01T07:54:18.623Z,0.97
2023-04-01T07:56:46.965Z,1.40
2023-04-01T07:59:12.239Z,1.17
2023-04-01T08:01:38.430Z,1.27
2023-04-01T08:04:08.043Z,0.90
2023-04-01T08:06:33.105Z,1.00
2023-04-01T08:09:01.022Z,1.10
2023-04-01T08:11:27.426Z,1.07
2023-04-01T08:13:55.430Z,1.20
2023-04-01T08:16:18.930Z,1.13
2023-04-01T08:18:43.809Z,1.00
2023-04-01T08:21:07.704Z,1.10
2023-04-01T08:23:32.260Z,1.10
2023-04-01T08:25:54.953Z,1.00
2023-04-01T08:28:19.499Z,1.00
2023-04-01T08:30:44.961Z,1.20
2023-04-01T08:33:10.322Z,1.00
2023-04-01T08:35:36.171Z,1.40
2023-04-01T08:38:02.490Z,0.80
2023-04-01T08:40:43.092Z,1.00
2023-04-01T08:43:09.155Z,1.23
2023-04-01T08:45:42.363Z,1.07
2023-04-01T08:48:18.381Z,1.20
2023-04-01T08:50:58.168Z,1.10
2023-04-01T08:53:25.260Z,1.00
2023-04-01T08:55:53.952Z,0.80
2023-04-01T08:58:28.956Z,0.90
2023-04-01T09:00:53.016Z,1.00
2023-04-01T09:03:25.434Z,0.83
2023-04-01T09:05:55.987Z,0.97
2023-04-01T09:08:25.948Z,0.97
2023-04-01T09:10:55.807Z,1.10
2023-04-01T09:13:32.652Z,1.20
2023-04-01T09:16:05.752Z,1.30
2023-04-01T09:18:34.423Z,1.07
2023-04-01T09:21:12.830Z,1.10
2023-04-01T09:23:54.910Z,0.80
2023-04-01T09:26:24.360Z,1.00
2023-04-01T09:28:51.695Z,1.20
2023-04-01T09:31:27.906Z,1.50
2023-04-01T09:33:55.438Z,1.37
2023-04-01T09:36:23.632Z,1.00
2023-04-01T09:38:51.526Z,1.27
2023-04-01T09:41:22.924Z,1.20
2023-04-01T09:43:54.069Z,0.97
2023-04-01T09:46:22.996Z,1.00
2023-04-01T09:49:08.666Z,1.27
2023-04-01T09:51:35.235Z,0.97
2023-04-01T09:54:03.744Z,1.13
2023-04-01T09:56:35.747Z,1.20
2023-04-01T09:59:15.645Z,1.30
2023-04-01T10:01:44.156Z,0.90
2023-04-01T10:04:25.427Z,1.30
2023-04-01T10:07:05.580Z,0.80
2023-04-01T10:09:35.607Z,1.20
2023-04-01T10:12:17.494Z,1.00
2023-04-01T10:14:49.629Z,0.90
2023-04-01T10:17:25.152Z,1.10
2023-04-01T10:19:54.766Z,1.10
2023-04-01T10:22:34.800Z,1.10
2023-04-01T10:25:14.943Z,0.90
2023-04-01T10:27:42.369Z,0.90
2023-04-01T10:30:22.499Z,1.70
2023-04-01T10:33:16.303Z,1.80
2023-04-01T10:36:04.159Z,1.30
2023-04-01T10:38:53.747Z,1.10
2023-04-01T10:41:31.353Z,0.90
2023-04-01T10:44:07.518Z,1.20
2023-04-01T10:46:44.063Z,1.13
2023-04-01T10:49:35.497Z,1.30
2023-04-01T10:52:15.528Z,2.17
2023-04-01T10:54:46.716Z,1.70
2023-04-01T10:57:16.683Z,1.50
2023-04-01T10:59:54.416Z,0.83
2023-04-01T11:02:33.545Z,1.50
2023-04-01T11:05:14.473Z,0.97
2023-04-01T11:08:05.997Z,1.00
2023-04-01T11:10:46.494Z,1.00
2023-04-01T11:13:22.266Z,1.00
2023-04-01T11:16:03.894Z,0.80
2023-04-01T11:18:42.223Z,1.00
2023-04-01T11:21:12.634Z,1.10
2023-04-01T11:23:55.016Z,0.80
2023-04-01T11:26:22.025Z,1.03
2023-04-01T11:28:50.924Z,0.90
2023-04-01T11:31:28.595Z,0.90
2023-04-01T11:33:51.433Z,0.87
2023-04-01T11:36:23.384Z,0.90
2023-04-01T11:39:02.565Z,0.87
2023-04-01T11:41:28.564Z,0.80
2023-04-01T11:43:54.643Z,0.93
2023-04-01T11:46:19.425Z,0.93
2023-04-01T11:48:46.349Z,1.10
2023-04-01T11:51:22.567Z,1.00
2023-04-01T11:53:46.604Z,0.63
2023-04-01T11:56:11.722Z,1.17
2023-04-01T11:58:49.986Z,0.80
2023-04-01T12:01:37.099Z,1.10
2023-04-01T12:04:13.360Z,1.33
2023-04-01T12:06:39.194Z,1.03
2023-04-01T12:09:05.012Z,1.03
2023-04-01T12:11:32.417Z,0.83
2023-04-01T12:13:58.105Z,0.83
2023-04-01T12:16:37.029Z,0.77
2023-04-01T12:19:02.006Z,0.90
2023-04-01T12:21:27.680Z,1.00
2023-04-01T12:24:09.987Z,1.00
2023-04-01T12:26:37.981Z,0.80
2023-04-01T12:29:10.576Z,0.80
2023-04-01T12:31:37.849Z,0.93
2023-04-01T12:34:05.814Z,0.80
2023-04-01T12:36:37.082Z,0.70
2023-04-01T12:39:08.357Z,0.90
2023-04-01T12:41:32.233Z,0.70
2023-04-01T12:44:14.369Z,0.70
2023-04-01T12:46:43.879Z,0.70
2023-04-01T12:49:23.250Z,0.87
2023-04-01T12:51:52.587Z,0.90
2023-04-01T12:54:25.827Z,1.70
2023-04-01T12:56:51.457Z,0.90
2023-04-01T12:59:26.585Z,0.90
2023-04-01T13:02:01.972Z,1.03
2023-04-01T13:04:37.819Z,0.90
2023-04-01T13:07:16.951Z,1.33
2023-04-01T13:09:44.639Z,0.80
2023-04-01T13:12:19.048Z,0.90
2023-04-01T13:14:51.873Z,1.00
2023-04-01T13:17:17.792Z,0.80
2023-04-01T13:19:43.205Z,0.90
2023-04-01T13:22:10.856Z,0.93
2023-04-01T13:24:39.676Z,0.80
2023-04-01T13:27:03.426Z,0.67
2023-04-01T13:29:28.260Z,0.80
2023-04-01T13:31:54.308Z,0.70
2023-04-01T13:34:39.354Z,0.80
2023-04-01T13:37:07.033Z,0.53
2023-04-01T13:39:42.392Z,0.60
2023-04-01T13:42:14.960Z,0.80
2023-04-01T13:44:39.155Z,0.90
2023-04-01T13:47:21.387Z,0.90
2023-04-01T13:50:03.986Z,0.90
2023-04-01T13:52:33.479Z,0.87
2023-04-01T13:55:09.366Z,1.03
2023-04-01T13:57:41.558Z,0.80
2023-04-01T14:00:09.718Z,1.20
2023-04-01T14:02:47.020Z,1.20
2023-04-01T14:05:17.147Z,0.70
2023-04-01T14:07:48.156Z,1.00
2023-04-01T14:10:13.099Z,1.40
2023-04-01T14:12:38.325Z,0.70
2023-04-01T14:15:09.489Z,0.80
2023-04-01T14:17:39.797Z,0.70
2023-04-01T14:20:09.878Z,0.70
2023-04-01T14:22:37.196Z,1.10
2023-04-01T14:25:12.909Z,0.70
2023-04-01T14:27:40.308Z,0.80
2023-04-01T14:30:23.686Z,0.97
2023-04-01T14:32:50.181Z,1.10
2023-04-01T14:35:19.844Z,0.70
2023-04-01T14:38:11.608Z,1.20
2023-04-01T14:40:41.106Z,0.80
2023-04-01T14:43:12.103Z,1.00
2023-04-01T14:45:45.627Z,0.60
2023-04-01T14:48:15.865Z,1.00
2023-04-01T14:50:43.232Z,1.10
2023-04-01T14:53:14.658Z,0.80
2023-04-01T14:55:38.482Z,0.70
2023-04-01T14:58:02.381Z,1.10
2023-04-01T15:00:23.523Z,2.80
2023-04-01T15:02:49.105Z,2.87
2023-04-01T15:05:17.024Z,1.70
2023-04-01T15:07:47.877Z,1.60
2023-04-01T15:10:15.206Z,1.30
2023-04-01T15:12:45.450Z,0.87
2023-04-01T15:15:21.103Z,0.80
2023-04-01T15:17:49.356Z,1.50
2023-04-01T15:20:23.510Z,1.00
2023-04-01T15:22:56.518Z,2.37
2023-04-01T15:25:33.505Z,1.07
2023-04-01T15:27:59.463Z,0.87
2023-04-01T15:30:25.591Z,1.30
2023-04-01T15:32:52.455Z,3.70
2023-04-01T15:35:19.700Z,1.53
2023-04-01T15:37:46.527Z,0.97
2023-04-01T15:40:17.088Z,1.00
2023-04-01T15:42:45.336Z,0.90
2023-04-01T15:45:18.617Z,1.00
2023-04-01T15:47:42.945Z,0.90
2023-04-01T15:50:20.743Z,1.73
2023-04-01T15:52:45.882Z,1.00
2023-04-01T15:55:18.490Z,1.10
2023-04-01T15:57:43.012Z,1.00
2023-04-01T16:00:23.319Z,1.50
2023-04-01T16:02:50.118Z,2.40
2023-04-01T16:05:19.016Z,1.17
2023-04-01T16:07:56.257Z,1.60
2023-04-01T16:10:36.125Z,1.80
2023-04-01T16:13:05.400Z,2.20
2023-04-01T16:15:28.575Z,2.07
2023-04-01T16:18:02.021Z,1.60
2023-04-01T16:20:24.446Z,2.30
2023-04-01T16:22:51.450Z,2.13
2023-04-01T16:25:30.146Z,1.30
2023-04-01T16:27:55.863Z,1.30
2023-04-01T16:30:34.203Z,1.10
2023-04-01T16:33:00.459Z,1.50
2023-04-01T16:35:28.016Z,1.20
2023-04-01T16:37:51.601Z,1.20
2023-04-01T16:40:17.300Z,1.80
2023-04-01T16:42:42.553Z,1.27
2023-04-01T16:45:17.311Z,1.17
2023-04-01T16:47:42.222Z,1.30
2023-04-01T16:50:15.496Z,1.20
2023-04-01T16:52:44.363Z,1.60
2023-04-01T16:55:14.338Z,2.27
2023-04-01T16:57:39.403Z,1.70
2023-04-01T17:00:03.042Z,2.30
2023-04-01T17:02:26.232Z,1.57
2023-04-01T17:04:49.680Z,1.30
2023-04-01T17:07:19.169Z,1.50
2023-04-01T17:09:47.675Z,1.40
2023-04-01T17:12:11.580Z,1.50
2023-04-01T17:14:37.635Z,1.30
2023-04-01T17:17:03.532Z,1.47
2023-04-01T17:19:36.476Z,1.33
2023-04-01T17:22:02.627Z,1.33
2023-04-01T17:24:31.494Z,1.67
2023-04-01T17:26:57.332Z,1.60
2023-04-01T17:29:22.310Z,1.20
2023-04-01T17:31:46.966Z,1.20
2023-04-01T17:34:27.140Z,1.40
2023-04-01T17:36:55.034Z,1.30
2023-04-01T17:39:21.821Z,2.50
2023-04-01T17:41:47.955Z,1.60
2023-04-01T17:44:17.182Z,1.40
2023-04-01T17:46:43.837Z,1.60
2023-04-01T17:49:10.476Z,1.67
2023-04-01T17:51:35.858Z,1.20
2023-04-01T17:54:01.763Z,1.20
2023-04-01T17:56:38.485Z,1.27
2023-04-01T17:59:04.827Z,1.20
2023-04-01T18:01:29.247Z,1.20
2023-04-01T18:03:58.003Z,1.40
2023-04-01T18:06:21.453Z,1.73
2023-04-01T18:08:48.556Z,1.70
2023-04-01T18:11:15.136Z,4.23
2023-04-01T18:13:57.567Z,4.33
2023-04-01T18:16:27.969Z,3.77
2023-04-01T18:18:52.198Z,4.00
2023-04-01T18:21:16.674Z,7.97
2023-04-01T18:23:42.788Z,6.03
2023-04-01T18:26:07.875Z,8.60
2023-04-01T18:28:34.675Z,2.10
2023-04-01T18:30:57.703Z,1.63
2023-04-01T18:33:21.756Z,1.77
2023-04-01T18:35:49.409Z,1.60
2023-04-01T18:38:14.190Z,1.60
2023-04-01T18:40:37.720Z,1.53
2023-04-01T18:43:04.303Z,1.23
2023-04-01T18:45:29.347Z,1.50
2023-04-01T18:47:57.001Z,1.20
2023-04-01T18:50:24.433Z,1.13
2023-04-01T18:52:46.272Z,1.10
2023-04-01T18:55:22.667Z,0.90
2023-04-01T18:57:48.274Z,1.40
2023-04-01T19:00:17.031Z,1.30
2023-04-01T19:02:40.565Z,1.50
2023-04-01T19:05:04.185Z,1.10
2023-04-01T19:07:41.398Z,1.40
2023-04-01T19:10:03.465Z,1.30
2023-04-01T19:12:40.473Z,1.30
2023-04-01T19:15:11.342Z,1.40
2023-04-01T19:17:37.470Z,1.00
2023-04-01T19:20:02.442Z,1.30
2023-04-01T19:22:37.451Z,1.50
2023-04-01T19:25:13.686Z,2.90
2023-04-01T19:27:37.590Z,1.60
2023-04-01T19:30:02.797Z,1.60
2023-04-01T19:32:29.977Z,1.33
2023-04-01T19:34:55.257Z,1.40
2023-04-01T19:37:23.057Z,2.00
2023-04-01T19:39:49.522Z,2.60
2023-04-01T19:42:14.542Z,2.00
2023-04-01T19:44:41.033Z,2.23
2023-04-01T19:47:06.925Z,2.67
2023-04-01T19:49:35.719Z,9.50
2023-04-01T19:51:59.302Z,3.20
2023-04-01T19:54:29.244Z,2.40
2023-04-01T19:56:53.604Z,2.00
2023-04-01T19:59:19.477Z,2.00
2023-04-01T20:01:45.596Z,1.90
2023-04-01T20:04:10.720Z,1.93
2023-04-01T20:06:34.891Z,1.80
2023-04-01T20:09:09.622Z,1.60
2023-04-01T20:11:35.199Z,1.50
2023-04-01T20:14:02.268Z,1.27
2023-04-01T20:16:23.926Z,1.27
2023-04-01T20:18:52.865Z,1.33
2023-04-01T20:21:25.970Z,1.20
2023-04-01T20:23:51.878Z,1.60
2023-04-01T20:26:13.805Z,2.37
2023-04-01T20:28:39.860Z,2.20
2023-04-01T20:31:06.672Z,2.17
2023-04-01T20:33:38.960Z,2.17
2023-04-01T20:36:07.991Z,2.90
2023-04-01T20:38:43.861Z,5.17
2023-04-01T20:41:07.114Z,2.87
2023-04-01T20:43:46.688Z,2.60
2023-04-01T20:46:12.046Z,2.27
2023-04-01T20:48:48.202Z,2.10
2023-04-01T20:51:14.388Z,2.00
2023-04-01T20:53:38.202Z,2.20
2023-04-01T20:56:34.204Z,2.53
2023-04-01T20:58:57.490Z,2.17
2023-04-01T21:01:22.953Z,2.50
2023-04-01T21:03:50.526Z,2.30
2023-04-01T21:06:29.326Z,2.40
2023-04-01T21:08:55.652Z,2.63
2023-04-01T21:11:20.450Z,2.67
2023-04-01T21:13:48.252Z,2.60
2023-04-01T21:16:24.893Z,2.20
2023-04-01T21:19:07.287Z,2.47
2023-04-01T21:21:47.281Z,2.67
2023-04-01T21:24:30.951Z,2.60
2023-04-01T21:26:54.415Z,2.60
2023-04-01T21:29:30.393Z,2.40
2023-04-01T21:31:56.169Z,2.73
2023-04-01T21:34:39.921Z,5.73
2023-04-01T21:37:07.787Z,2.90
2023-04-01T21:39:49.458Z,2.63
2023-04-01T21:42:21.886Z,2.50
2023-04-01T21:45:02.171Z,2.40
2023-04-01T21:47:44.886Z,2.20
2023-04-01T21:50:21.471Z,2.30
2023-04-01T21:52:52.750Z,2.30
2023-04-01T21:55:28.881Z,3.17
2023-04-01T21:58:10.021Z,2.67
2023-04-01T22:00:33.733Z,2.83
2023-04-01T22:03:10.378Z,2.20
2023-04-01T22:05:39.194Z,2.10
2023-04-01T22:08:06.734Z,2.10
2023-04-01T22:10:31.541Z,2.40
2023-04-01T22:12:56.863Z,2.30
2023-04-01T22:15:22.461Z,2.50
2023-04-01T22:17:47.690Z,2.20
2023-04-01T22:20:20.426Z,2.83
2023-04-01T22:22:52.186Z,2.30
2023-04-01T22:25:16.249Z,2.10
2023-04-01T22:27:42.912Z,2.30
2023-04-01T22:30:08.704Z,2.40
2023-04-01T22:32:36.497Z,2.10
2023-04-01T22:34:59.785Z,2.10
2023-04-01T22:37:24.245Z,1.90
2023-04-01T22:39:51.957Z,2.13
2023-04-01T22:42:22.908Z,2.00
2023-04-01T22:44:51.716Z,1.80
2023-04-01T22:47:18.248Z,2.00
2023-04-01T22:49:43.771Z,1.67
2023-04-01T22:52:06.853Z,1.80
2023-04-01T22:54:30.930Z,1.80
2023-04-01T22:56:55.222Z,1.80
2023-04-01T22:59:17.849Z,1.80
2023-04-01T23:01:44.039Z,1.67
2023-04-01T23:04:07.410Z,1.70
2023-04-01T23:06:33.339Z,1.60
2023-04-01T23:09:07.214Z,1.40
2023-04-01T23:11:29.259Z,1.50
2023-04-01T23:13:53.678Z,1.57
2023-04-01T23:16:15.008Z,1.57
2023-04-01T23:18:38.480Z,1.50
2023-04-01T23:21:05.695Z,1.50
2023-04-01T23:23:33.183Z,1.40
2023-04-01T23:25:57.542Z,1.70
2023-04-01T23:28:22.026Z,1.47
2023-04-01T23:30:51.294Z,1.13
2023-04-01T23:33:12.975Z,1.40
2023-04-01T23:35:34.730Z,1.23
2023-04-01T23:37:57.030Z,1.20
2023-04-01T23:40:19.742Z,1.10
2023-04-01T23:42:42.783Z,1.20
2023-04-01T23:45:06.541Z,1.20
2023-04-01T23:47:31.252Z,1.10
2023-04-01T23:49:54.335Z,1.30
2023-04-01T23:52:19.001Z,1.00
2023-04-01T23:54:42.403Z,1.27
2023-04-01T23:57:08.614Z,1.00
2023-04-01T23:59:30.657Z,1.20
